Niobe, New York
Current Conditions -  °F | °C
As of 12:55 PM on Saturday 25 Oct 2014 (Local Time) from KJHW Reporting Station
Clear Clear  
Wind Chill: 61°   Ceiling: Unl
Heat Index: 61°   Visibility: 10mi
Dew Point: 48°   Wind: 14mph
Humidity: 63%   Direction: 210°SSW
Pressure: 29.76"   Gusts: 21mph
Location:  42.01°N, 79.45°W
Report Text: KJHW 251655Z AUTO 21012G18KT 10SM CLR 16/09 A2976 RMK AO1
Loading
Personal Weather Stations






























Interactive Weather Map
Tropical Storm Tracking
New forecast layout! Learn more

10-Day Weather Forecast

Advertisements
Track Severe Weather on mobile